createdAt,value
2023-04-26T00:01:11.781Z,11.96
2023-04-26T00:03:40.863Z,11.77
2023-04-26T00:06:14.136Z,12.33
2023-04-26T00:08:43.259Z,11.69
2023-04-26T00:11:10.882Z,11.93
2023-04-26T00:13:38.580Z,11.84
2023-04-26T00:16:06.753Z,12.21
2023-04-26T00:18:34.456Z,11.90
2023-04-26T00:21:02.009Z,11.67
2023-04-26T00:23:30.103Z,12.01
2023-04-26T00:25:57.610Z,11.94
2023-04-26T00:28:25.054Z,12.32
2023-04-26T00:30:52.729Z,12.45
2023-04-26T00:33:20.732Z,11.97
2023-04-26T00:35:48.214Z,12.03
2023-04-26T00:38:15.989Z,12.06
2023-04-26T00:40:43.433Z,11.51
2023-04-26T00:43:11.162Z,12.10
2023-04-26T00:45:39.067Z,11.97
2023-04-26T00:48:06.627Z,11.85
2023-04-26T00:50:34.238Z,11.28
2023-04-26T00:53:02.921Z,11.38
2023-04-26T00:55:31.355Z,11.66
2023-04-26T00:57:59.491Z,11.84
2023-04-26T01:00:27.818Z,11.39
2023-04-26T01:02:55.376Z,11.22
2023-04-26T01:05:22.823Z,11.23
2023-04-26T01:07:51.162Z,11.33
2023-04-26T01:10:18.933Z,11.35
2023-04-26T01:12:46.883Z,11.46
2023-04-26T01:15:18.457Z,11.47
2023-04-26T01:17:49.703Z,11.15
2023-04-26T01:20:17.342Z,10.98
2023-04-26T01:22:44.786Z,11.06
2023-04-26T01:25:12.832Z,10.95
2023-04-26T01:27:40.620Z,11.19
2023-04-26T01:30:10.535Z,10.91
2023-04-26T01:32:37.999Z,11.09
2023-04-26T01:35:06.019Z,10.35
2023-04-26T01:37:33.402Z,11.04
2023-04-26T01:40:01.188Z,10.96
2023-04-26T01:42:28.891Z,10.26
2023-04-26T01:44:56.291Z,10.88
2023-04-26T01:47:23.881Z,10.37
2023-04-26T01:49:52.806Z,10.61
2023-04-26T01:52:22.851Z,10.63
2023-04-26T01:54:51.214Z,9.96
2023-04-26T01:57:21.133Z,10.19
2023-04-26T01:59:48.507Z,10.36
2023-04-26T02:02:18.409Z,10.55
2023-04-26T02:04:46.144Z,10.79
2023-04-26T02:07:13.531Z,10.64
2023-04-26T02:09:46.599Z,10.93
2023-04-26T02:12:14.266Z,11.07
2023-04-26T02:14:41.640Z,11.30
2023-04-26T02:17:11.272Z,11.53
2023-04-26T02:19:38.979Z,11.65
2023-04-26T02:22:06.662Z,11.19
2023-04-26T02:24:34.039Z,10.99
2023-04-26T02:27:04.108Z,10.85
2023-04-26T02:29:43.923Z,11.19
2023-04-26T02:32:15.622Z,11.12
2023-04-26T02:34:44.491Z,11.30
2023-04-26T02:37:11.937Z,11.22
2023-04-26T02:39:39.529Z,11.49
2023-04-26T02:42:10.920Z,10.77
2023-04-26T02:44:39.703Z,11.49
2023-04-26T02:47:08.213Z,10.94
2023-04-26T02:49:35.763Z,11.03
2023-04-26T02:52:03.287Z,11.22
2023-04-26T02:54:31.239Z,11.13
2023-04-26T02:56:58.982Z,10.59
2023-04-26T02:59:28.122Z,10.37
2023-04-26T03:01:56.115Z,10.62
2023-04-26T03:04:24.290Z,10.24
2023-04-26T03:06:51.736Z,10.02
2023-04-26T03:09:20.000Z,10.38
2023-04-26T03:11:50.118Z,9.98
2023-04-26T03:14:18.005Z,9.64
2023-04-26T03:16:46.582Z,10.01
2023-04-26T03:19:14.704Z,10.12
2023-04-26T03:21:42.447Z,10.29
2023-04-26T03:24:10.147Z,10.44
2023-04-26T03:26:37.609Z,10.27
2023-04-26T03:29:05.293Z,10.34
2023-04-26T03:31:33.304Z,10.70
2023-04-26T03:34:00.780Z,10.32
2023-04-26T03:36:28.836Z,10.76
2023-04-26T03:38:56.556Z,10.72
2023-04-26T03:41:24.935Z,10.70
2023-04-26T03:43:53.477Z,11.18
2023-04-26T03:46:21.213Z,11.61
2023-04-26T03:48:48.795Z,11.02
2023-04-26T03:51:17.136Z,11.14
2023-04-26T03:53:46.847Z,11.10
2023-04-26T03:56:14.568Z,11.72
2023-04-26T03:58:42.265Z,11.70
2023-04-26T04:01:10.051Z,11.72
2023-04-26T04:03:40.666Z,11.62
2023-04-26T04:06:08.728Z,12.16
2023-04-26T04:08:36.276Z,12.03
2023-04-26T04:11:03.940Z,12.19
2023-04-26T04:13:32.217Z,11.85
2023-04-26T04:15:59.651Z,12.14
2023-04-26T04:18:27.410Z,12.43
2023-04-26T04:20:54.832Z,12.33
2023-04-26T04:23:22.856Z,12.31
2023-04-26T04:25:51.660Z,12.07
2023-04-26T04:28:20.393Z,12.20
2023-04-26T04:30:48.152Z,11.97
2023-04-26T04:33:17.720Z,12.34
2023-04-26T04:35:45.445Z,11.61
2023-04-26T04:38:13.188Z,11.53
2023-04-26T04:40:41.209Z,11.68
2023-04-26T04:43:09.059Z,11.09
2023-04-26T04:45:37.293Z,11.37
2023-04-26T04:48:05.494Z,10.71
2023-04-26T04:50:33.148Z,10.58
2023-04-26T04:53:00.686Z,11.10
2023-04-26T04:55:28.794Z,11.35
2023-04-26T04:57:56.382Z,12.00
2023-04-26T05:00:24.051Z,11.27
2023-04-26T05:02:52.265Z,11.03
2023-04-26T05:05:20.490Z,11.33
2023-04-26T05:07:48.203Z,11.71
2023-04-26T05:10:16.436Z,11.97
2023-04-26T05:12:43.901Z,10.93
2023-04-26T05:15:11.381Z,11.59
2023-04-26T05:17:42.268Z,11.28
2023-04-26T05:20:11.282Z,11.71
2023-04-26T05:22:39.890Z,12.34
2023-04-26T05:25:08.604Z,11.95
2023-04-26T05:27:37.752Z,12.67
2023-04-26T05:30:06.770Z,12.74
2023-04-26T05:32:34.278Z,13.02
2023-04-26T05:35:01.923Z,14.28
2023-04-26T05:37:31.686Z,14.26
2023-04-26T05:39:59.162Z,14.07
2023-04-26T05:42:27.009Z,14.02
2023-04-26T05:44:58.953Z,13.10
2023-04-26T05:47:27.820Z,13.68
2023-04-26T05:49:55.488Z,13.17
2023-04-26T05:52:23.197Z,12.88
2023-04-26T05:54:50.646Z,13.49
2023-04-26T05:57:19.112Z,13.34
2023-04-26T05:59:46.911Z,13.89
2023-04-26T06:02:14.575Z,13.20
2023-04-26T06:04:42.449Z,12.72
2023-04-26T06:07:10.536Z,13.00
2023-04-26T06:09:38.021Z,12.71
2023-04-26T06:12:05.889Z,12.68
2023-04-26T06:14:33.992Z,12.54
2023-04-26T06:17:01.642Z,12.39
2023-04-26T06:19:29.507Z,12.53
2023-04-26T06:21:57.325Z,12.26
2023-04-26T06:24:26.123Z,12.58
2023-04-26T06:26:53.852Z,12.78
2023-04-26T06:29:21.845Z,12.69
2023-04-26T06:31:49.442Z,12.31
2023-04-26T06:34:18.371Z,11.74
2023-04-26T06:36:46.375Z,12.05
2023-04-26T06:39:14.038Z,12.11
2023-04-26T06:41:43.499Z,12.11
2023-04-26T06:44:11.419Z,12.15
2023-04-26T06:46:42.446Z,11.69
2023-04-26T06:49:11.482Z,11.82
2023-04-26T06:51:38.868Z,12.74
2023-04-26T06:54:06.363Z,13.18
2023-04-26T06:56:34.037Z,13.10
2023-04-26T06:59:06.297Z,12.45
2023-04-26T07:01:35.188Z,12.57
2023-04-26T07:04:04.364Z,12.66
2023-04-26T07:06:32.142Z,12.78
2023-04-26T07:09:01.363Z,12.78
2023-04-26T07:11:29.144Z,13.53
2023-04-26T07:13:57.162Z,13.55
2023-04-26T07:16:24.992Z,12.81
2023-04-26T07:18:58.336Z,13.23
2023-04-26T07:21:26.935Z,13.11
2023-04-26T07:23:55.839Z,12.48
2023-04-26T07:26:23.838Z,12.65
2023-04-26T07:28:52.500Z,12.48
2023-04-26T07:31:20.668Z,12.89
2023-04-26T07:33:48.099Z,13.30
2023-04-26T07:36:15.884Z,12.72
2023-04-26T07:38:43.436Z,13.04
2023-04-26T07:41:12.949Z,12.98
2023-04-26T07:43:40.714Z,13.32
2023-04-26T07:46:08.257Z,13.63
2023-04-26T07:48:35.745Z,13.10
2023-04-26T07:51:10.905Z,13.18
2023-04-26T07:53:39.170Z,12.80
2023-04-26T07:56:08.450Z,13.08
2023-04-26T07:58:36.872Z,13.05
2023-04-26T08:01:04.461Z,13.86
2023-04-26T08:03:32.740Z,13.63
2023-04-26T08:06:00.565Z,12.89
2023-04-26T08:08:28.355Z,12.72
2023-04-26T08:10:56.161Z,13.24
2023-04-26T08:13:23.590Z,13.17
2023-04-26T08:15:50.959Z,13.27
2023-04-26T08:18:18.685Z,13.91
2023-04-26T08:20:46.200Z,14.35
2023-04-26T08:23:14.343Z,14.08
2023-04-26T08:25:42.042Z,14.20
2023-04-26T08:28:09.664Z,14.23
2023-04-26T08:30:37.120Z,14.11
2023-04-26T08:33:04.967Z,14.24
2023-04-26T08:35:32.530Z,13.83
2023-04-26T08:37:59.907Z,13.55
2023-04-26T08:40:27.659Z,13.81
2023-04-26T08:42:55.143Z,14.59
2023-04-26T08:45:22.939Z,15.26
2023-04-26T08:47:53.389Z,14.93
2023-04-26T08:50:22.423Z,15.17
2023-04-26T08:52:51.528Z,14.34
2023-04-26T08:55:20.350Z,13.66
2023-04-26T08:57:49.637Z,14.55
2023-04-26T09:00:18.200Z,14.20
2023-04-26T09:02:54.057Z,14.60
2023-04-26T09:05:24.098Z,14.47
2023-04-26T09:07:56.344Z,13.82
2023-04-26T09:10:24.149Z,14.26
2023-04-26T09:12:55.538Z,15.35
2023-04-26T09:15:24.448Z,14.68
2023-04-26T09:17:52.854Z,15.11
2023-04-26T09:20:24.633Z,16.00
2023-04-26T09:23:05.129Z,15.79
2023-04-26T09:25:32.977Z,15.58
2023-04-26T09:28:01.560Z,16.26
2023-04-26T09:30:30.725Z,16.36
2023-04-26T09:32:59.671Z,16.02
2023-04-26T09:35:28.625Z,16.26
2023-04-26T09:38:04.701Z,15.42
2023-04-26T09:40:38.469Z,15.48
2023-04-26T09:43:35.360Z,16.30
2023-04-26T09:46:03.590Z,16.19
2023-04-26T09:48:34.583Z,16.36
2023-04-26T09:51:14.298Z,16.48
2023-04-26T09:53:46.535Z,16.10
2023-04-26T09:56:15.751Z,15.94
2023-04-26T09:59:01.138Z,16.01
2023-04-26T10:01:30.467Z,16.12
2023-04-26T10:04:01.188Z,15.87
2023-04-26T10:06:28.849Z,15.51
2023-04-26T10:08:56.730Z,15.48
2023-04-26T10:11:24.999Z,15.73
2023-04-26T10:13:52.436Z,15.88
2023-04-26T10:16:21.511Z,14.95
2023-04-26T10:18:50.975Z,14.34
2023-04-26T10:21:31.509Z,15.21
2023-04-26T10:24:00.321Z,15.54
2023-04-26T10:26:50.330Z,15.70
2023-04-26T10:29:18.412Z,15.91
2023-04-26T10:32:01.760Z,15.63
2023-04-26T10:34:33.746Z,15.42
2023-04-26T10:37:15.119Z,15.78
2023-04-26T10:39:44.423Z,15.68
2023-04-26T10:42:25.842Z,15.21
2023-04-26T10:44:58.403Z,15.75
2023-04-26T10:47:26.341Z,15.13
2023-04-26T10:50:05.696Z,15.21
2023-04-26T10:52:34.222Z,15.03
2023-04-26T10:55:02.790Z,15.14
2023-04-26T10:57:50.384Z,15.67
2023-04-26T11:00:29.099Z,15.56
2023-04-26T11:03:00.216Z,15.95
2023-04-26T11:05:44.614Z,15.34
2023-04-26T11:08:20.523Z,15.15
2023-04-26T11:11:03.230Z,14.84
2023-04-26T11:13:36.556Z,15.03
2023-04-26T11:16:06.465Z,15.10
2023-04-26T11:18:35.563Z,15.58
2023-04-26T11:21:03.220Z,15.55
2023-04-26T11:23:31.876Z,15.19
2023-04-26T11:26:02.752Z,15.19
2023-04-26T11:28:33.871Z,14.85
2023-04-26T11:31:04.236Z,14.74
2023-04-26T11:33:34.173Z,14.70
2023-04-26T11:36:02.217Z,15.46
2023-04-26T11:38:30.166Z,16.00
2023-04-26T11:40:59.226Z,15.53
2023-04-26T11:43:45.182Z,16.40
2023-04-26T11:46:12.563Z,15.89
2023-04-26T11:48:40.996Z,15.42
2023-04-26T11:51:08.882Z,15.19
2023-04-26T11:53:40.646Z,15.28
2023-04-26T11:56:18.871Z,14.86
2023-04-26T11:58:51.000Z,15.20
2023-04-26T12:01:26.171Z,14.43
2023-04-26T12:03:58.309Z,14.21
2023-04-26T12:06:30.470Z,14.81
2023-04-26T12:08:59.018Z,14.29
2023-04-26T12:11:27.467Z,14.32
2023-04-26T12:13:58.721Z,14.30
2023-04-26T12:16:27.641Z,14.68
2023-04-26T12:18:57.367Z,15.42
2023-04-26T12:21:27.477Z,15.52
2023-04-26T12:23:57.017Z,15.91
2023-04-26T12:26:41.842Z,16.07
2023-04-26T12:29:09.556Z,15.94
2023-04-26T12:31:37.467Z,16.00
2023-04-26T12:34:04.953Z,14.95
2023-04-26T12:36:32.740Z,15.16
2023-04-26T12:39:03.674Z,15.07
2023-04-26T12:41:31.176Z,15.43
2023-04-26T12:43:58.876Z,15.24
2023-04-26T12:46:26.389Z,14.58
2023-04-26T12:48:54.394Z,15.03
2023-04-26T12:51:22.195Z,14.96
2023-04-26T12:53:50.800Z,14.77
2023-04-26T12:56:18.288Z,15.13
2023-04-26T12:58:46.164Z,14.34
2023-04-26T13:01:14.097Z,14.34
2023-04-26T13:03:41.763Z,14.38
2023-04-26T13:06:09.854Z,14.42
2023-04-26T13:08:37.314Z,14.65
2023-04-26T13:11:04.782Z,15.27
2023-04-26T13:13:42.866Z,14.97
2023-04-26T13:16:12.962Z,14.92
2023-04-26T13:18:41.509Z,15.58
2023-04-26T13:21:08.977Z,14.63
2023-04-26T13:23:36.501Z,15.00
2023-04-26T13:26:04.220Z,15.04
2023-04-26T13:28:31.645Z,15.53
2023-04-26T13:30:59.620Z,15.14
2023-04-26T13:33:27.371Z,14.76
2023-04-26T13:35:54.781Z,14.56
2023-04-26T13:38:22.174Z,14.36
2023-04-26T13:40:49.826Z,14.19
2023-04-26T13:43:17.610Z,14.78
2023-04-26T13:45:45.080Z,14.75
2023-04-26T13:48:13.017Z,14.51
2023-04-26T13:50:40.861Z,14.63
2023-04-26T13:53:08.438Z,14.90
2023-04-26T13:55:36.150Z,15.42
2023-04-26T13:58:03.557Z,15.48
2023-04-26T14:00:31.222Z,15.72
2023-04-26T14:02:59.330Z,15.34
2023-04-26T14:05:27.083Z,15.22
2023-04-26T14:07:55.358Z,14.84
2023-04-26T14:10:23.342Z,14.55
2023-04-26T14:12:50.794Z,14.65
2023-04-26T14:15:18.231Z,14.48
2023-04-26T14:17:47.084Z,14.65
2023-04-26T14:20:15.253Z,14.68
2023-04-26T14:22:42.746Z,14.10
2023-04-26T14:25:10.437Z,14.43
2023-04-26T14:27:39.523Z,14.29
2023-04-26T14:30:07.722Z,14.26
2023-04-26T14:32:35.950Z,13.86
2023-04-26T14:35:03.903Z,13.97
2023-04-26T14:37:31.344Z,13.90
2023-04-26T14:39:59.385Z,13.95
2023-04-26T14:42:26.888Z,14.65
2023-04-26T14:44:54.372Z,13.97
2023-04-26T14:47:22.084Z,14.13
2023-04-26T14:49:49.588Z,13.51
2023-04-26T14:52:17.183Z,13.87
2023-04-26T14:54:44.907Z,13.97
2023-04-26T14:57:12.619Z,14.11
2023-04-26T14:59:40.203Z,14.65
2023-04-26T15:02:08.838Z,14.51
2023-04-26T15:04:37.855Z,14.45
2023-04-26T15:07:05.541Z,14.25
2023-04-26T15:09:33.231Z,14.53
2023-04-26T15:12:02.572Z,15.24
2023-04-26T15:14:30.000Z,14.78
2023-04-26T15:16:58.295Z,15.38
2023-04-26T15:19:25.799Z,14.91
2023-04-26T15:21:53.204Z,14.64
2023-04-26T15:24:20.846Z,13.88
2023-04-26T15:26:48.248Z,14.55
2023-04-26T15:29:15.696Z,14.44
2023-04-26T15:31:43.412Z,14.25
2023-04-26T15:34:10.854Z,14.62
2023-04-26T15:36:38.296Z,14.66
2023-04-26T15:39:05.942Z,14.30
2023-04-26T15:41:33.331Z,14.14
2023-04-26T15:44:00.756Z,14.06
2023-04-26T15:46:28.489Z,14.51
2023-04-26T15:48:56.245Z,14.65
2023-04-26T15:51:24.211Z,14.67
2023-04-26T15:53:52.648Z,13.79
2023-04-26T15:56:20.059Z,13.90
2023-04-26T15:58:47.708Z,13.22
2023-04-26T16:01:15.688Z,13.56
2023-04-26T16:03:47.224Z,13.62
2023-04-26T16:06:15.550Z,13.65
2023-04-26T16:08:43.366Z,13.52
2023-04-26T16:11:11.247Z,13.22
2023-04-26T16:13:38.699Z,13.72
2023-04-26T16:16:08.287Z,14.06
2023-04-26T16:18:35.758Z,13.33
2023-04-26T16:21:07.307Z,13.77
2023-04-26T16:23:35.697Z,13.57
2023-04-26T16:26:03.259Z,14.23
2023-04-26T16:28:30.761Z,13.52
2023-04-26T16:30:58.551Z,13.66
2023-04-26T16:33:26.765Z,14.11
2023-04-26T16:35:57.565Z,14.26
2023-04-26T16:38:25.305Z,14.46
2023-04-26T16:41:01.428Z,14.07
2023-04-26T16:43:30.387Z,14.14
2023-04-26T16:46:02.390Z,13.87
2023-04-26T16:48:34.622Z,13.77
2023-04-26T16:51:06.349Z,13.34
2023-04-26T16:53:35.977Z,13.59
2023-04-26T16:56:04.401Z,14.45
2023-04-26T16:58:32.507Z,14.43
2023-04-26T17:01:00.493Z,14.58
2023-04-26T17:03:28.423Z,14.17
2023-04-26T17:05:56.003Z,14.65
2023-04-26T17:08:23.673Z,13.65
2023-04-26T17:10:51.944Z,13.66
2023-04-26T17:13:19.806Z,13.34
2023-04-26T17:15:47.970Z,13.49
2023-04-26T17:18:15.814Z,14.12
2023-04-26T17:20:43.302Z,14.16
2023-04-26T17:23:11.787Z,14.02
2023-04-26T17:25:39.438Z,13.82
2023-04-26T17:28:06.982Z,13.91
2023-04-26T17:30:34.774Z,13.48
2023-04-26T17:33:02.271Z,13.73
2023-04-26T17:35:29.891Z,14.24
2023-04-26T17:37:57.619Z,14.52
2023-04-26T17:40:24.997Z,14.28
2023-04-26T17:42:52.431Z,14.61
2023-04-26T17:45:20.132Z,14.88
2023-04-26T17:47:47.766Z,14.99
2023-04-26T17:50:15.773Z,14.86
2023-04-26T17:52:43.879Z,15.00
2023-04-26T17:55:11.388Z,14.76
2023-04-26T17:57:39.283Z,15.12
2023-04-26T18:00:09.460Z,15.17
2023-04-26T18:02:37.461Z,14.86
2023-04-26T18:05:06.649Z,15.05
2023-04-26T18:07:34.106Z,14.68
2023-04-26T18:10:01.662Z,15.03
2023-04-26T18:12:30.817Z,14.45
2023-04-26T18:14:58.390Z,14.45
2023-04-26T18:17:26.058Z,14.50
2023-04-26T18:19:53.899Z,13.78
2023-04-26T18:22:21.397Z,14.24
2023-04-26T18:24:48.855Z,14.65
2023-04-26T18:27:16.667Z,14.29
2023-04-26T18:29:44.285Z,14.51
2023-04-26T18:32:12.510Z,14.38
2023-04-26T18:34:40.568Z,14.78
2023-04-26T18:37:08.028Z,14.69
2023-04-26T18:39:35.473Z,14.60
2023-04-26T18:42:03.878Z,14.56
2023-04-26T18:44:31.624Z,14.77
2023-04-26T18:46:59.425Z,14.88
2023-04-26T18:49:27.458Z,14.51
2023-04-26T18:51:56.090Z,14.68
2023-04-26T18:54:23.469Z,14.57
2023-04-26T18:56:51.435Z,14.63
2023-04-26T18:59:19.128Z,14.52
2023-04-26T19:01:46.860Z,14.54
2023-04-26T19:04:14.889Z,14.56
2023-04-26T19:06:42.722Z,14.45
2023-04-26T19:09:13.866Z,14.06
2023-04-26T19:11:41.738Z,14.26
2023-04-26T19:14:09.190Z,14.31
2023-04-26T19:16:36.978Z,14.24
2023-04-26T19:19:05.716Z,14.06
2023-04-26T19:21:33.822Z,13.93
2023-04-26T19:24:01.726Z,14.10
2023-04-26T19:26:29.611Z,13.88
2023-04-26T19:28:57.000Z,13.98
2023-04-26T19:31:24.902Z,14.24
2023-04-26T19:33:52.613Z,14.27
2023-04-26T19:36:20.688Z,13.87
2023-04-26T19:38:48.518Z,13.77
2023-04-26T19:41:16.642Z,13.93
2023-04-26T19:43:44.087Z,13.69
2023-04-26T19:46:15.333Z,13.73
2023-04-26T19:48:43.133Z,13.78
2023-04-26T19:51:17.459Z,13.74
2023-04-26T19:53:45.549Z,13.49
2023-04-26T19:56:13.090Z,13.22
2023-04-26T19:58:40.759Z,13.45
2023-04-26T20:01:08.728Z,13.37
2023-04-26T20:03:38.184Z,13.27
2023-04-26T20:06:06.078Z,13.37
2023-04-26T20:08:33.685Z,13.51
2023-04-26T20:11:03.613Z,13.06
2023-04-26T20:13:31.943Z,13.52
2023-04-26T20:15:59.571Z,13.47
2023-04-26T20:18:27.295Z,13.55
2023-04-26T20:20:54.907Z,13.50
2023-04-26T20:23:22.354Z,13.47
2023-04-26T20:25:51.544Z,13.45
2023-04-26T20:28:19.241Z,13.53
2023-04-26T20:30:46.758Z,13.51
2023-04-26T20:33:14.523Z,13.49
2023-04-26T20:35:42.157Z,13.31
2023-04-26T20:38:10.175Z,13.08
2023-04-26T20:40:38.191Z,13.01
2023-04-26T20:43:05.775Z,12.93
2023-04-26T20:45:33.172Z,12.95
2023-04-26T20:48:01.377Z,12.87
2023-04-26T20:50:28.906Z,12.68
2023-04-26T20:52:56.296Z,12.43
2023-04-26T20:55:24.036Z,12.54
2023-04-26T20:57:51.488Z,12.33
2023-04-26T21:00:19.167Z,12.31
2023-04-26T21:02:47.299Z,12.44
2023-04-26T21:05:14.797Z,12.37
2023-04-26T21:07:42.311Z,12.30
2023-04-26T21:10:10.241Z,12.17
2023-04-26T21:12:38.132Z,11.70
2023-04-26T21:15:06.394Z,12.06
2023-04-26T21:17:35.470Z,12.09
2023-04-26T21:20:03.045Z,12.18
2023-04-26T21:22:30.453Z,12.06
2023-04-26T21:24:58.100Z,12.17
2023-04-26T21:27:25.568Z,12.08
2023-04-26T21:29:52.960Z,12.20
2023-04-26T21:32:20.774Z,12.17
2023-04-26T21:34:48.180Z,12.08
2023-04-26T21:37:16.726Z,11.96
2023-04-26T21:39:44.421Z,12.17
2023-04-26T21:42:12.023Z,12.23
2023-04-26T21:44:39.423Z,12.05
2023-04-26T21:47:07.146Z,12.13
2023-04-26T21:49:34.815Z,12.25
2023-04-26T21:52:02.192Z,12.16
2023-04-26T21:54:29.830Z,11.82
2023-04-26T21:56:57.240Z,11.79
2023-04-26T21:59:24.636Z,11.96
2023-04-26T22:01:52.286Z,12.02
2023-04-26T22:04:20.150Z,11.91
2023-04-26T22:06:47.672Z,11.95
2023-04-26T22:09:15.075Z,11.75
2023-04-26T22:11:42.736Z,11.77
2023-04-26T22:14:10.162Z,11.64
2023-04-26T22:16:37.645Z,11.79
2023-04-26T22:19:05.436Z,11.82
2023-04-26T22:21:32.849Z,11.78
2023-04-26T22:24:01.177Z,11.84
2023-04-26T22:26:28.857Z,11.87
2023-04-26T22:28:56.743Z,11.80
2023-04-26T22:31:24.215Z,11.38
2023-04-26T22:33:52.016Z,11.51
2023-04-26T22:36:19.403Z,11.49
2023-04-26T22:38:46.776Z,11.52
2023-04-26T22:41:14.403Z,11.04
2023-04-26T22:43:43.842Z,11.29
2023-04-26T22:46:11.659Z,11.25
2023-04-26T22:48:39.365Z,11.37
2023-04-26T22:51:07.110Z,11.48
2023-04-26T22:53:34.496Z,11.40
2023-04-26T22:56:02.165Z,11.51
2023-04-26T22:58:29.553Z,11.46
2023-04-26T23:00:56.952Z,11.28
2023-04-26T23:03:24.846Z,11.21
2023-04-26T23:05:52.358Z,11.31
2023-04-26T23:08:19.869Z,11.37
2023-04-26T23:10:47.575Z,11.36
2023-04-26T23:13:14.961Z,11.30
2023-04-26T23:15:42.552Z,11.15
2023-04-26T23:18:10.583Z,11.17
2023-04-26T23:20:38.018Z,11.25
2023-04-26T23:23:05.443Z,11.28
2023-04-26T23:25:33.127Z,11.35
2023-04-26T23:28:00.638Z,11.45
2023-04-26T23:30:28.122Z,11.51
2023-04-26T23:32:55.840Z,11.55
2023-04-26T23:35:23.309Z,10.59
2023-04-26T23:37:52.460Z,10.55
2023-04-26T23:40:20.186Z,10.81
2023-04-26T23:42:47.584Z,10.64
2023-04-26T23:45:14.999Z,10.94
2023-04-26T23:47:42.642Z,10.99
2023-04-26T23:50:10.378Z,10.89
2023-04-26T23:52:37.838Z,10.91
2023-04-26T23:55:06.721Z,10.86
2023-04-26T23:57:34.755Z,10.85
